Terminal Aerodrome Forecast
Issued by NWS Twin Cities, MN

Home | Current Version | Previous Version | Graphics & Text | Print | Product List | Glossary On
Versions: 1 2 3 4 5 6 7 8 9 10 11 12 13 14 15 16 17 18 19 20 21 22 23 24 25 26 27 28 29 30 31 32 33 34 35
000
FTUS43 KMPX 222335
TAFMSP
TAF
KMSP 222335Z 2300/2406 17014KT P6SM SCT150
     FM230200 18014KT P6SM SCT150 WS020/21050KT
     FM230700 18009KT P6SM SCT120 BKN250
     FM231700 18010KT P6SM SCT050=

USA.gov is the U.S. government's official web portal to all federal, state and local government web resources and services.